createdAt,value
2022-07-26T00:02:08.475Z,21.80
2022-07-26T00:04:35.758Z,21.70
2022-07-26T00:07:04.046Z,21.70
2022-07-26T00:09:31.359Z,21.70
2022-07-26T00:11:58.970Z,21.70
2022-07-26T00:14:26.642Z,21.60
2022-07-26T00:16:54.120Z,21.60
2022-07-26T00:19:21.528Z,21.60
2022-07-26T00:22:09.024Z,21.60
2022-07-26T00:24:36.285Z,21.60
2022-07-26T00:27:06.898Z,21.60
2022-07-26T00:29:34.263Z,21.60
2022-07-26T00:32:01.630Z,21.60
2022-07-26T00:34:30.007Z,21.50
2022-07-26T00:36:57.337Z,21.50
2022-07-26T00:39:24.847Z,21.50
2022-07-26T00:41:52.322Z,21.50
2022-07-26T00:44:19.628Z,21.50
2022-07-26T00:46:47.097Z,21.50
2022-07-26T00:49:14.421Z,21.50
2022-07-26T00:51:42.303Z,21.50
2022-07-26T00:54:13.768Z,21.40
2022-07-26T00:56:44.058Z,21.50
2022-07-26T00:59:11.734Z,21.40
2022-07-26T01:01:39.765Z,21.40
2022-07-26T01:04:07.357Z,21.40
2022-07-26T01:06:57.583Z,21.30
2022-07-26T01:09:31.261Z,21.30
2022-07-26T01:12:09.104Z,21.30
2022-07-26T01:14:36.958Z,21.20
2022-07-26T01:17:04.446Z,21.20
2022-07-26T01:19:43.980Z,21.10
2022-07-26T01:22:14.825Z,21.10
2022-07-26T01:24:46.430Z,21.10
2022-07-26T01:27:14.232Z,21.10
2022-07-26T01:29:41.448Z,21.00
2022-07-26T01:32:11.906Z,21.00
2022-07-26T01:34:49.409Z,21.00
2022-07-26T01:37:17.208Z,21.00
2022-07-26T01:39:45.890Z,20.90
2022-07-26T01:42:13.203Z,20.90
2022-07-26T01:44:41.015Z,20.90
2022-07-26T01:47:08.476Z,20.90
2022-07-26T01:49:35.727Z,20.80
2022-07-26T01:52:09.877Z,20.80
2022-07-26T01:54:37.731Z,20.80
2022-07-26T01:57:05.316Z,20.80
2022-07-26T01:59:37.197Z,20.80
2022-07-26T02:02:04.617Z,20.80
2022-07-26T02:04:53.061Z,20.70
2022-07-26T02:07:24.588Z,20.70
2022-07-26T02:09:53.400Z,20.80
2022-07-26T02:12:20.924Z,20.70
2022-07-26T02:14:48.337Z,20.70
2022-07-26T02:17:16.228Z,20.80
2022-07-26T02:19:43.813Z,20.80
2022-07-26T02:22:11.078Z,20.80
2022-07-26T02:24:40.698Z,20.80
2022-07-26T02:27:08.096Z,20.80
2022-07-26T02:29:36.820Z,20.80
2022-07-26T02:32:15.199Z,20.80
2022-07-26T02:34:45.493Z,20.80
2022-07-26T02:37:12.763Z,20.80
2022-07-26T02:39:39.997Z,20.80
2022-07-26T02:42:11.023Z,20.80
2022-07-26T02:44:42.700Z,20.80
2022-07-26T02:47:10.249Z,20.80
2022-07-26T02:49:41.267Z,20.90
2022-07-26T02:52:08.960Z,20.90
2022-07-26T02:54:39.005Z,20.90
2022-07-26T02:57:09.954Z,20.90
2022-07-26T02:59:37.467Z,21.00
2022-07-26T03:02:05.698Z,21.00
2022-07-26T03:04:36.215Z,21.00
2022-07-26T03:07:17.250Z,21.00
2022-07-26T03:09:44.557Z,21.10
2022-07-26T03:12:11.763Z,21.00
2022-07-26T03:14:42.591Z,21.10
2022-07-26T03:17:09.896Z,21.10
2022-07-26T03:19:37.876Z,21.10
2022-07-26T03:22:08.020Z,21.10
2022-07-26T03:24:36.007Z,21.10
2022-07-26T03:27:03.421Z,21.10
2022-07-26T03:29:31.968Z,21.20
2022-07-26T03:31:59.322Z,21.20
2022-07-26T03:34:27.106Z,21.20
2022-07-26T03:36:54.501Z,21.20
2022-07-26T03:39:23.408Z,21.20
2022-07-26T03:41:50.607Z,21.20
2022-07-26T03:44:17.855Z,21.20
2022-07-26T03:46:45.186Z,21.20
2022-07-26T03:49:16.868Z,21.20
2022-07-26T03:51:44.865Z,21.10
2022-07-26T03:54:12.418Z,21.10
2022-07-26T03:56:41.028Z,21.10
2022-07-26T03:59:10.520Z,21.10
2022-07-26T04:01:42.046Z,21.10
2022-07-26T04:04:11.824Z,21.00
2022-07-26T04:06:43.119Z,21.00
2022-07-26T04:09:10.561Z,21.00
2022-07-26T04:11:41.118Z,21.00
2022-07-26T04:14:13.741Z,21.00
2022-07-26T04:16:43.683Z,20.90
2022-07-26T04:19:13.748Z,20.90
2022-07-26T04:21:41.407Z,20.90
2022-07-26T04:24:10.323Z,20.90
2022-07-26T04:26:38.134Z,20.90
2022-07-26T04:29:11.681Z,20.90
2022-07-26T04:31:41.843Z,20.90
2022-07-26T04:34:09.578Z,20.90
2022-07-26T04:36:37.397Z,20.90
2022-07-26T04:39:04.780Z,20.90
2022-07-26T04:41:34.661Z,21.00
2022-07-26T04:44:04.788Z,20.90
2022-07-26T04:46:32.761Z,21.00
2022-07-26T04:49:03.896Z,21.00
2022-07-26T04:51:34.760Z,21.00
2022-07-26T04:54:06.120Z,21.00
2022-07-26T04:56:42.716Z,21.10
2022-07-26T04:59:22.088Z,21.10
2022-07-26T05:01:49.917Z,21.10
2022-07-26T05:04:17.258Z,21.10
2022-07-26T05:06:44.622Z,21.20
2022-07-26T05:09:12.451Z,21.20
2022-07-26T05:11:43.178Z,21.20
2022-07-26T05:14:13.637Z,21.20
2022-07-26T05:16:44.430Z,21.20
2022-07-26T05:19:14.473Z,21.30
2022-07-26T05:21:41.675Z,21.30
2022-07-26T05:24:12.606Z,21.30
2022-07-26T05:26:40.034Z,21.40
2022-07-26T05:29:07.231Z,21.40
2022-07-26T05:31:41.663Z,21.40
2022-07-26T05:34:09.401Z,21.50
2022-07-26T05:36:36.941Z,21.50
2022-07-26T05:39:05.976Z,21.50
2022-07-26T05:41:35.804Z,21.50
2022-07-26T05:44:03.734Z,21.60
2022-07-26T05:46:31.167Z,21.70
2022-07-26T05:48:58.726Z,21.70
2022-07-26T05:51:26.226Z,21.80
2022-07-26T05:53:53.847Z,21.80
2022-07-26T05:56:21.203Z,21.90
2022-07-26T05:58:49.014Z,21.90
2022-07-26T06:01:16.634Z,22.00
2022-07-26T06:03:46.881Z,22.10
2022-07-26T06:06:14.428Z,22.10
2022-07-26T06:08:43.216Z,22.20
2022-07-26T06:11:12.414Z,22.30
2022-07-26T06:13:39.877Z,22.30
2022-07-26T06:16:07.441Z,22.40
2022-07-26T06:18:34.811Z,22.50
2022-07-26T06:21:02.774Z,22.50
2022-07-26T06:23:34.168Z,22.50
2022-07-26T06:26:04.034Z,22.60
2022-07-26T06:28:31.709Z,22.60
2022-07-26T06:30:59.207Z,22.70
2022-07-26T06:33:26.570Z,22.80
2022-07-26T06:35:53.868Z,22.90
2022-07-26T06:38:21.159Z,22.90
2022-07-26T06:40:48.625Z,23.00
2022-07-26T06:43:15.974Z,23.00
2022-07-26T06:45:43.412Z,23.10
2022-07-26T06:48:14.620Z,23.20
2022-07-26T06:50:43.893Z,23.30
2022-07-26T06:53:25.035Z,23.40
2022-07-26T06:55:55.349Z,23.50
2022-07-26T06:58:22.687Z,23.60
2022-07-26T07:00:50.255Z,23.70
2022-07-26T07:03:36.130Z,23.90
2022-07-26T07:06:16.516Z,24.10
2022-07-26T07:08:50.923Z,24.30
2022-07-26T07:11:18.256Z,24.60
2022-07-26T07:14:08.836Z,24.80
2022-07-26T07:16:46.971Z,25.10
2022-07-26T07:19:14.235Z,25.30
2022-07-26T07:21:41.683Z,25.50
2022-07-26T07:24:10.002Z,25.70
2022-07-26T07:26:37.793Z,25.80
2022-07-26T07:29:12.118Z,25.90
2022-07-26T07:31:48.939Z,26.00
2022-07-26T07:34:25.979Z,26.00
2022-07-26T07:36:54.064Z,26.10
2022-07-26T07:39:59.175Z,26.20
2022-07-26T07:43:12.112Z,26.30
2022-07-26T07:45:39.432Z,26.40
2022-07-26T07:48:07.039Z,26.50
2022-07-26T07:50:37.301Z,26.60
2022-07-26T07:53:08.439Z,26.70
2022-07-26T07:55:40.389Z,26.90
2022-07-26T07:58:10.699Z,27.20
2022-07-26T08:00:44.319Z,27.30
2022-07-26T08:03:12.290Z,27.30
2022-07-26T08:05:45.589Z,27.30
2022-07-26T08:08:12.963Z,27.20
2022-07-26T08:10:49.126Z,27.10
2022-07-26T08:13:59.509Z,27.00
2022-07-26T08:16:26.843Z,26.80
2022-07-26T08:19:05.264Z,26.80
2022-07-26T08:21:33.976Z,26.70
2022-07-26T08:24:47.255Z,26.60
2022-07-26T08:27:15.402Z,26.40
2022-07-26T08:29:42.774Z,26.30
2022-07-26T08:32:10.210Z,26.30
2022-07-26T08:34:37.514Z,26.40
2022-07-26T08:37:25.262Z,26.50
2022-07-26T08:42:57.712Z,27.00
2022-07-26T08:46:04.518Z,27.20
2022-07-26T08:49:22.070Z,27.40
2022-07-26T08:51:49.422Z,27.70
2022-07-26T08:54:58.149Z,27.90
2022-07-26T08:57:26.766Z,28.10
2022-07-26T09:00:41.626Z,28.40
2022-07-26T09:03:23.754Z,28.50
2022-07-26T09:05:58.997Z,28.70
2022-07-26T09:08:37.360Z,28.70
2022-07-26T09:11:29.049Z,28.80
2022-07-26T09:14:07.187Z,29.00
2022-07-26T09:16:40.020Z,29.10
2022-07-26T09:19:32.206Z,29.20
2022-07-26T09:22:12.393Z,29.30
2022-07-26T09:24:46.752Z,29.30
2022-07-26T09:27:17.651Z,29.30
2022-07-26T09:29:53.968Z,29.30
2022-07-26T09:32:27.876Z,29.30
2022-07-26T09:35:36.956Z,29.30
2022-07-26T09:38:18.536Z,29.20
2022-07-26T09:40:50.883Z,29.00
2022-07-26T09:43:39.661Z,28.70
2022-07-26T09:46:07.543Z,28.30
2022-07-26T09:49:07.209Z,27.90
2022-07-26T09:51:41.741Z,27.50
2022-07-26T09:54:40.258Z,27.00
2022-07-26T09:57:23.204Z,26.60
2022-07-26T09:59:57.619Z,26.20
2022-07-26T10:02:25.013Z,25.90
2022-07-26T10:04:52.401Z,25.60
2022-07-26T10:07:19.900Z,25.40
2022-07-26T10:10:02.281Z,25.20
2022-07-26T10:12:33.482Z,25.00
2022-07-26T10:15:01.094Z,24.90
2022-07-26T10:17:35.182Z,24.80
2022-07-26T10:21:12.880Z,24.80
2022-07-26T10:24:38.827Z,24.90
2022-07-26T10:30:34.220Z,25.20
2022-07-26T10:33:35.259Z,25.30
2022-07-26T10:36:33.695Z,25.50
2022-07-26T10:39:16.643Z,25.60
2022-07-26T10:41:46.913Z,25.70
2022-07-26T10:44:39.208Z,25.80
2022-07-26T10:47:24.496Z,25.90
2022-07-26T10:50:15.699Z,26.00
2022-07-26T10:53:04.067Z,26.00
2022-07-26T10:55:44.712Z,26.20
2022-07-26T10:58:12.455Z,26.20
2022-07-26T11:00:39.800Z,26.30
2022-07-26T11:03:22.682Z,26.50
2022-07-26T11:05:51.266Z,26.70
2022-07-26T11:08:18.974Z,26.90
2022-07-26T11:10:54.976Z,27.20
2022-07-26T11:13:37.353Z,27.40
2022-07-26T11:16:23.564Z,27.60
2022-07-26T11:18:52.969Z,27.90
2022-07-26T11:21:20.549Z,28.00
2022-07-26T11:24:16.657Z,28.00
2022-07-26T11:26:46.051Z,27.90
2022-07-26T11:29:39.087Z,27.80
2022-07-26T11:32:26.698Z,27.70
2022-07-26T11:35:04.172Z,27.60
2022-07-26T11:38:14.405Z,27.60
2022-07-26T11:40:47.266Z,27.70
2022-07-26T11:43:14.834Z,27.90
2022-07-26T11:45:42.365Z,28.20
2022-07-26T11:48:10.589Z,28.30
2022-07-26T11:50:47.132Z,28.40
2022-07-26T11:53:47.330Z,28.50
2022-07-26T11:56:20.606Z,28.50
2022-07-26T11:58:50.651Z,28.50
2022-07-26T12:01:32.417Z,28.30
2022-07-26T12:04:24.150Z,28.30
2022-07-26T12:07:10.460Z,28.30
2022-07-26T12:10:16.833Z,28.20
2022-07-26T12:12:44.559Z,28.00
2022-07-26T12:15:13.711Z,27.70
2022-07-26T12:18:00.952Z,27.40
2022-07-26T12:20:35.148Z,27.10
2022-07-26T12:23:36.019Z,26.90
2022-07-26T12:26:22.554Z,26.60
2022-07-26T12:29:04.911Z,26.30
2022-07-26T12:31:44.013Z,26.20
2022-07-26T12:34:55.433Z,25.90
2022-07-26T12:38:04.204Z,25.70
2022-07-26T12:40:45.147Z,25.60
2022-07-26T12:43:12.637Z,25.50
2022-07-26T12:50:34.479Z,25.30
2022-07-26T12:53:31.400Z,25.00
2022-07-26T12:56:06.401Z,24.80
2022-07-26T13:01:44.322Z,24.40
2022-07-26T13:04:12.211Z,24.20
2022-07-26T13:06:49.418Z,23.90
2022-07-26T13:09:35.745Z,23.70
2022-07-26T13:12:24.624Z,23.50
2022-07-26T13:14:51.997Z,23.30
2022-07-26T13:17:19.514Z,23.20
2022-07-26T13:19:46.927Z,23.00
2022-07-26T13:22:43.934Z,22.90
2022-07-26T13:27:53.813Z,22.70
2022-07-26T13:30:22.590Z,22.80
2022-07-26T13:32:50.202Z,22.80
2022-07-26T13:35:17.600Z,23.00
2022-07-26T13:37:44.950Z,23.20
2022-07-26T13:40:28.942Z,23.40
2022-07-26T13:43:19.852Z,23.50
2022-07-26T13:48:36.488Z,23.70
2022-07-26T13:51:09.930Z,23.70
2022-07-26T13:53:52.307Z,23.70
2022-07-26T13:56:35.344Z,23.70
2022-07-26T13:59:02.578Z,23.80
2022-07-26T14:01:50.424Z,23.90
2022-07-26T14:04:45.016Z,24.00
2022-07-26T14:07:12.562Z,24.20
2022-07-26T14:09:45.915Z,24.30
2022-07-26T14:12:37.155Z,24.40
2022-07-26T14:15:22.914Z,24.50
2022-07-26T14:17:54.050Z,24.60
2022-07-26T14:20:22.019Z,24.60
2022-07-26T14:22:54.052Z,24.70
2022-07-26T14:25:26.569Z,24.90
2022-07-26T14:27:55.469Z,25.20
2022-07-26T14:33:24.266Z,25.80
2022-07-26T14:35:51.580Z,26.00
2022-07-26T14:38:25.487Z,26.10
2022-07-26T14:40:59.765Z,26.10
2022-07-26T14:43:30.305Z,26.10
2022-07-26T14:46:20.450Z,26.00
2022-07-26T14:48:54.427Z,26.00
2022-07-26T14:51:22.559Z,25.90
2022-07-26T14:53:49.790Z,25.80
2022-07-26T14:56:17.070Z,25.80
2022-07-26T14:58:45.310Z,25.70
2022-07-26T15:01:14.320Z,25.70
2022-07-26T15:03:51.751Z,25.70
2022-07-26T15:06:19.206Z,25.70
2022-07-26T15:08:52.601Z,25.60
2022-07-26T15:11:20.103Z,25.50
2022-07-26T15:13:47.503Z,25.30
2022-07-26T15:16:15.074Z,25.20
2022-07-26T15:18:42.578Z,25.10
2022-07-26T15:21:09.919Z,24.90
2022-07-26T15:24:51.994Z,24.80
2022-07-26T15:27:22.905Z,24.60
2022-07-26T15:30:10.242Z,24.40
2022-07-26T15:32:42.207Z,24.20
2022-07-26T15:35:14.660Z,24.00
2022-07-26T15:37:43.995Z,23.80
2022-07-26T15:40:21.476Z,23.70
2022-07-26T15:42:57.396Z,23.60
2022-07-26T15:45:25.698Z,23.50
2022-07-26T15:47:56.258Z,23.40
2022-07-26T15:50:28.545Z,23.30
2022-07-26T15:52:58.784Z,23.20
2022-07-26T15:55:26.294Z,23.10
2022-07-26T15:57:56.039Z,23.00
2022-07-26T16:00:23.913Z,22.90
2022-07-26T16:02:51.928Z,22.90
2022-07-26T16:05:19.494Z,22.80
2022-07-26T16:07:51.508Z,22.80
2022-07-26T16:10:20.924Z,22.80
2022-07-26T16:12:54.775Z,22.80
2022-07-26T16:15:25.354Z,22.70
2022-07-26T16:17:52.741Z,22.70
2022-07-26T16:20:23.391Z,22.70
2022-07-26T16:22:51.051Z,22.70
2022-07-26T16:25:21.453Z,22.70
2022-07-26T16:27:49.568Z,22.70
2022-07-26T16:30:21.063Z,22.60
2022-07-26T16:32:48.581Z,22.60
2022-07-26T16:35:16.150Z,22.50
2022-07-26T16:37:43.621Z,22.40
2022-07-26T16:40:20.123Z,22.40
2022-07-26T16:42:50.374Z,22.30
2022-07-26T16:45:27.382Z,22.20
2022-07-26T16:48:11.636Z,22.10
2022-07-26T16:51:01.676Z,22.00
2022-07-26T16:56:13.006Z,21.70
2022-07-26T16:58:40.481Z,21.60
2022-07-26T17:01:51.300Z,21.60
2022-07-26T17:04:18.839Z,21.50
2022-07-26T17:07:51.141Z,21.40
2022-07-26T17:10:19.066Z,21.40
2022-07-26T17:12:46.415Z,21.40
2022-07-26T17:15:14.596Z,21.40
2022-07-26T17:17:49.171Z,21.40
2022-07-26T17:23:04.985Z,21.40
2022-07-26T17:25:33.045Z,21.40
2022-07-26T17:31:23.102Z,21.50
2022-07-26T17:33:59.989Z,21.50
2022-07-26T17:36:30.710Z,21.50
2022-07-26T17:47:18.017Z,21.60
2022-07-26T17:50:33.980Z,21.70
2022-07-26T17:52:51.523Z,21.70
2022-07-26T18:07:27.536Z,21.80
2022-07-26T18:09:54.942Z,21.90
2022-07-26T18:12:22.370Z,22.00
2022-07-26T18:14:49.886Z,22.00
2022-07-26T18:18:12.735Z,21.90
2022-07-26T18:20:40.215Z,22.00
2022-07-26T18:25:49.208Z,22.00
2022-07-26T18:28:19.748Z,22.10
2022-07-26T18:30:47.149Z,22.10
2022-07-26T18:34:29.694Z,22.10
2022-07-26T18:36:57.156Z,22.10
2022-07-26T18:39:24.505Z,22.20
2022-07-26T18:42:12.304Z,22.20
2022-07-26T18:44:40.256Z,22.20
2022-07-26T18:47:08.348Z,22.20
2022-07-26T18:49:36.310Z,22.20
2022-07-26T18:52:08.646Z,22.20
2022-07-26T18:54:39.275Z,22.10
2022-07-26T18:59:54.204Z,22.00
2022-07-26T19:02:21.545Z,22.00
2022-07-26T19:04:48.842Z,22.00
2022-07-26T19:07:19.496Z,21.90
2022-07-26T19:10:20.447Z,21.90
2022-07-26T19:12:52.138Z,21.80
2022-07-26T19:15:22.755Z,21.80
2022-07-26T19:18:16.300Z,21.70
2022-07-26T19:20:44.929Z,21.70
2022-07-26T19:23:12.398Z,21.70
2022-07-26T19:28:40.260Z,21.60
2022-07-26T19:31:28.549Z,21.50
2022-07-26T19:34:15.348Z,21.40
2022-07-26T19:36:43.891Z,21.30
2022-07-26T19:39:11.442Z,21.30
2022-07-26T19:41:38.913Z,21.20
2022-07-26T19:44:21.615Z,21.10
2022-07-26T19:49:48.686Z,21.00
2022-07-26T19:55:23.253Z,20.90
2022-07-26T19:57:50.511Z,20.90
2022-07-26T20:00:50.833Z,20.80
2022-07-26T20:03:18.081Z,20.80
2022-07-26T20:06:10.220Z,20.70
2022-07-26T20:08:48.920Z,20.60
2022-07-26T20:11:20.015Z,20.60
2022-07-26T20:14:01.410Z,20.50
2022-07-26T20:19:17.774Z,20.40
2022-07-26T20:21:54.921Z,20.40
2022-07-26T20:24:22.206Z,20.30
2022-07-26T20:26:49.611Z,20.30
2022-07-26T20:29:17.578Z,20.20
2022-07-26T20:31:45.184Z,20.20
2022-07-26T20:34:12.936Z,20.20
2022-07-26T20:36:40.202Z,20.10
2022-07-26T20:39:13.503Z,20.10
2022-07-26T20:41:50.561Z,20.10
2022-07-26T20:44:30.463Z,20.10
2022-07-26T20:47:06.640Z,20.00
2022-07-26T20:49:34.021Z,20.00
2022-07-26T20:52:04.475Z,20.00
2022-07-26T20:54:33.073Z,20.00
2022-07-26T20:57:00.420Z,19.90
2022-07-26T20:59:32.712Z,19.90
2022-07-26T21:01:59.937Z,19.90
2022-07-26T21:04:27.553Z,19.90
2022-07-26T21:06:54.868Z,19.90
2022-07-26T21:09:22.197Z,19.80
2022-07-26T21:11:51.326Z,19.80
2022-07-26T21:14:18.547Z,19.80
2022-07-26T21:17:42.177Z,19.80
2022-07-26T21:20:10.149Z,19.80
2022-07-26T21:22:37.560Z,19.80
2022-07-26T21:25:06.646Z,19.80
2022-07-26T21:27:34.179Z,19.80
2022-07-26T21:30:01.401Z,19.70
2022-07-26T21:32:31.756Z,19.70
2022-07-26T21:35:00.220Z,19.70
2022-07-26T21:37:27.893Z,19.60
2022-07-26T21:39:55.144Z,19.60
2022-07-26T21:42:22.480Z,19.60
2022-07-26T21:44:54.177Z,19.60
2022-07-26T21:47:21.333Z,19.60
2022-07-26T21:49:48.503Z,19.60
2022-07-26T21:52:15.831Z,19.50
2022-07-26T21:54:43.100Z,19.50
2022-07-26T21:57:10.382Z,19.50
2022-07-26T21:59:37.674Z,19.50
2022-07-26T22:02:05.025Z,19.50
2022-07-26T22:04:32.439Z,19.50
2022-07-26T22:06:59.713Z,19.50
2022-07-26T22:09:26.964Z,19.50
2022-07-26T22:11:54.344Z,19.50
2022-07-26T22:14:22.456Z,19.50
2022-07-26T22:16:49.832Z,19.50
2022-07-26T22:19:17.252Z,19.40
2022-07-26T22:21:44.489Z,19.40
2022-07-26T22:24:12.052Z,19.40
2022-07-26T22:26:42.187Z,19.40
2022-07-26T22:29:10.452Z,19.40
2022-07-26T22:31:39.911Z,19.40
2022-07-26T22:34:07.270Z,19.30
2022-07-26T22:36:34.469Z,19.30
2022-07-26T22:39:01.956Z,19.30
2022-07-26T22:41:31.928Z,19.20
2022-07-26T22:44:03.019Z,19.20
2022-07-26T22:46:31.705Z,19.20
2022-07-26T22:48:59.094Z,19.10
2022-07-26T22:51:26.538Z,19.10
2022-07-26T22:53:53.737Z,19.10
2022-07-26T22:56:21.442Z,19.10
2022-07-26T22:58:48.734Z,19.00
2022-07-26T23:01:16.779Z,19.00
2022-07-26T23:03:44.587Z,19.00
2022-07-26T23:06:25.163Z,18.90
2022-07-26T23:08:59.009Z,18.90
2022-07-26T23:11:26.543Z,18.90
2022-07-26T23:13:58.871Z,18.90
2022-07-26T23:16:27.312Z,18.80
2022-07-26T23:18:55.973Z,18.80
2022-07-26T23:21:23.215Z,18.80
2022-07-26T23:23:51.374Z,18.80
2022-07-26T23:26:18.876Z,18.70
2022-07-26T23:28:46.666Z,18.70
2022-07-26T23:31:14.876Z,18.70
2022-07-26T23:33:53.045Z,18.70
2022-07-26T23:36:26.881Z,18.60
2022-07-26T23:38:57.451Z,18.60
2022-07-26T23:41:26.241Z,18.60
2022-07-26T23:43:54.764Z,18.60
2022-07-26T23:46:23.070Z,18.60
2022-07-26T23:48:51.026Z,18.60
2022-07-26T23:51:19.698Z,18.50
2022-07-26T23:53:48.039Z,18.50
2022-07-26T23:56:15.680Z,18.50
2022-07-26T23:58:43.184Z,18.50
